createdAt,value
2023-11-01T00:02:52.403Z,99563.53
2023-11-01T00:05:55.370Z,99568.81
2023-11-01T00:08:58.272Z,99575.84
2023-11-01T00:12:01.886Z,99576.94
2023-11-01T00:15:04.628Z,99576.00
2023-11-01T00:18:07.377Z,99577.66
2023-11-01T00:21:09.877Z,99581.50
2023-11-01T00:24:12.659Z,99584.47
2023-11-01T00:27:15.227Z,99587.84
2023-11-01T00:30:18.218Z,99591.06
2023-11-01T00:33:20.787Z,99598.34
2023-11-01T00:36:23.598Z,99597.41
2023-11-01T00:39:26.147Z,99603.41
2023-11-01T00:42:29.444Z,99608.19
2023-11-01T00:45:32.106Z,99600.75
2023-11-01T00:48:34.878Z,99610.31
2023-11-01T00:51:37.383Z,99610.16
2023-11-01T00:54:40.199Z,99612.06
2023-11-01T00:57:43.865Z,99608.50
2023-11-01T01:00:46.713Z,99610.88
2023-11-01T01:03:49.537Z,99619.87
2023-11-01T01:06:52.584Z,99625.22
2023-11-01T01:09:55.121Z,99622.25
2023-11-01T01:12:58.084Z,99631.22
2023-11-01T01:16:00.673Z,99633.72
2023-11-01T01:19:04.834Z,99638.53
2023-11-01T01:22:07.392Z,99641.88
2023-11-01T01:25:10.267Z,99636.97
2023-11-01T01:28:12.794Z,99641.16
2023-11-01T01:31:15.658Z,99625.63
2023-11-01T01:34:18.269Z,99623.25
2023-11-01T01:37:21.038Z,99623.59
2023-11-01T01:40:23.527Z,99617.03
2023-11-01T01:43:27.196Z,99632.34
2023-11-01T01:46:31.349Z,99626.94
2023-11-01T01:49:40.112Z,99630.91
2023-11-01T01:52:48.159Z,99634.25
2023-11-01T01:55:50.962Z,99631.72
2023-11-01T01:58:54.319Z,99624.31
2023-11-01T02:01:57.579Z,99633.88
2023-11-01T02:05:01.585Z,99636.88
2023-11-01T02:08:04.895Z,99641.41
2023-11-01T02:11:07.828Z,99644.53
2023-11-01T02:14:10.849Z,99647.88
2023-11-01T02:17:13.877Z,99658.63
2023-11-01T02:20:16.610Z,99661.75
2023-11-01T02:23:32.433Z,99665.78
2023-11-01T02:26:35.462Z,99661.25
2023-11-01T02:29:38.295Z,99666.50
2023-11-01T02:32:41.953Z,99675.13
2023-11-01T02:35:44.676Z,99676.19
2023-11-01T02:38:47.602Z,99674.53
2023-11-01T02:41:50.447Z,99686.38
2023-11-01T02:44:54.103Z,99684.59
2023-11-01T02:47:56.977Z,99688.16
2023-11-01T02:50:59.891Z,99689.00
2023-11-01T02:54:02.599Z,99697.75
2023-11-01T02:57:05.523Z,99696.87
2023-11-01T03:00:09.846Z,99702.88
2023-11-01T03:03:13.277Z,99709.91
2023-11-01T03:06:16.432Z,99709.19
2023-11-01T03:09:19.433Z,99715.31
2023-11-01T03:12:22.051Z,99717.94
2023-11-01T03:15:25.042Z,99728.34
2023-11-01T03:18:27.823Z,99719.63
2023-11-01T03:21:30.705Z,99719.97
2023-11-01T03:24:33.872Z,99716.38
2023-11-01T03:27:37.118Z,99719.13
2023-11-01T03:30:39.759Z,99712.53
2023-11-01T03:33:42.635Z,99717.81
2023-11-01T03:36:45.603Z,99732.03
2023-11-01T03:39:49.231Z,99733.69
2023-11-01T03:42:51.818Z,99743.13
2023-11-01T03:45:55.174Z,99744.19
2023-11-01T03:48:57.801Z,99755.94
2023-11-01T03:52:04.240Z,99755.69
2023-11-01T03:55:12.262Z,99755.78
2023-11-01T03:58:15.109Z,99761.28
2023-11-01T04:01:18.202Z,99767.94
2023-11-01T04:04:21.391Z,99767.94
2023-11-01T04:07:23.995Z,99772.47
2023-11-01T04:10:26.882Z,99778.78
2023-11-01T04:13:29.506Z,99783.12
2023-11-01T04:16:32.615Z,99783.50
2023-11-01T04:19:35.276Z,99782.16
2023-11-01T04:22:39.410Z,99785.75
2023-11-01T04:25:42.539Z,99790.03
2023-11-01T04:28:45.560Z,99790.66
2023-11-01T04:31:48.290Z,99794.19
2023-11-01T04:34:51.232Z,99791.66
2023-11-01T04:37:55.781Z,99788.19
2023-11-01T04:40:58.646Z,99789.84
2023-11-01T04:44:01.209Z,99790.50
2023-11-01T04:47:04.482Z,99793.44
2023-11-01T04:50:10.732Z,99789.84
2023-11-01T04:53:13.788Z,99784.84
2023-11-01T04:56:16.447Z,99791.66
2023-11-01T04:59:19.397Z,99782.41
2023-11-01T05:02:23.015Z,99784.59
2023-11-01T05:05:26.008Z,99787.03
2023-11-01T05:08:29.678Z,99781.53
2023-11-01T05:11:32.765Z,99774.00
2023-11-01T05:14:35.425Z,99795.84
2023-11-01T05:17:38.608Z,99795.06
2023-11-01T05:20:41.308Z,99790.91
2023-11-01T05:23:46.061Z,99783.75
2023-11-01T05:26:48.781Z,99788.91
2023-11-01T05:29:52.576Z,99798.25
2023-11-01T05:32:55.326Z,99792.88
2023-11-01T05:35:58.336Z,99809.38
2023-11-01T05:39:06.465Z,99811.47
2023-11-01T05:42:09.861Z,99817.03
2023-11-01T05:45:17.297Z,99822.94
2023-11-01T05:48:20.386Z,99834.63
2023-11-01T05:51:23.127Z,99840.63
2023-11-01T05:54:26.151Z,99845.41
2023-11-01T05:57:28.789Z,99855.94
2023-11-01T06:00:31.701Z,99853.22
2023-11-01T06:03:34.840Z,99858.84
2023-11-01T06:06:37.740Z,99861.88
2023-11-01T06:09:40.836Z,99861.31
2023-11-01T06:12:43.482Z,99876.12
2023-11-01T06:15:46.398Z,99881.50
2023-11-01T06:18:49.632Z,99889.06
2023-11-01T06:21:52.771Z,99886.53
2023-11-01T06:24:55.989Z,99888.19
2023-11-01T06:27:59.300Z,99889.19
2023-11-01T06:31:01.929Z,99890.38
2023-11-01T06:34:05.602Z,99893.19
2023-11-01T06:37:08.685Z,99895.91
2023-11-01T06:40:13.103Z,99892.16
2023-11-01T06:43:15.908Z,99885.06
2023-11-01T06:46:19.066Z,99884.91
2023-11-01T06:49:22.029Z,99880.31
2023-11-01T06:52:24.923Z,99879.47
2023-11-01T06:55:27.531Z,99880.59
2023-11-01T06:58:30.449Z,99875.19
2023-11-01T07:01:33.123Z,99877.25
2023-11-01T07:04:36.081Z,99883.66
2023-11-01T07:07:38.648Z,99872.31
2023-11-01T07:10:41.743Z,99871.13
2023-11-01T07:13:44.334Z,99869.25
2023-11-01T07:16:47.296Z,99864.50
2023-11-01T07:19:50.336Z,99877.47
2023-11-01T07:22:53.187Z,99869.50
2023-11-01T07:25:55.883Z,99872.13
2023-11-01T07:29:00.499Z,99883.84
2023-11-01T07:32:03.071Z,99888.06
2023-11-01T07:35:06.605Z,99884.97
2023-11-01T07:38:09.280Z,99876.19
2023-11-01T07:41:12.184Z,99884.19
2023-11-01T07:44:14.845Z,99895.00
2023-11-01T07:47:17.672Z,99884.94
2023-11-01T07:50:21.020Z,99885.97
2023-11-01T07:53:23.885Z,99891.50
2023-11-01T07:56:26.676Z,99895.44
2023-11-01T07:59:29.619Z,99896.06
2023-11-01T08:02:32.599Z,99889.59
2023-11-01T08:05:35.702Z,99891.91
2023-11-01T08:08:38.418Z,99905.19
2023-11-01T08:11:41.265Z,99914.44
2023-11-01T08:14:43.754Z,99912.69
2023-11-01T08:17:46.616Z,99905.28
2023-11-01T08:20:49.525Z,99903.38
2023-11-01T08:23:53.045Z,99908.13
2023-11-01T08:26:55.646Z,99905.88
2023-11-01T08:29:58.421Z,99906.09
2023-11-01T08:33:01.022Z,99903.53
2023-11-01T08:36:04.415Z,99906.84
2023-11-01T08:39:07.619Z,99908.87
2023-11-01T08:42:10.476Z,99909.63
2023-11-01T08:45:13.245Z,99909.75
2023-11-01T08:48:17.527Z,99918.63
2023-11-01T08:51:20.293Z,99912.34
2023-11-01T08:54:25.596Z,99912.72
2023-11-01T08:57:28.749Z,99903.72
2023-11-01T09:00:39.521Z,99912.22
2023-11-01T09:03:48.420Z,99912.09
2023-11-01T09:06:51.287Z,99918.16
2023-11-01T09:09:56.511Z,99920.28
2023-11-01T09:13:00.712Z,99924.50
2023-11-01T09:16:03.341Z,99924.53
2023-11-01T09:19:06.229Z,99920.25
2023-11-01T09:22:09.539Z,99917.81
2023-11-01T09:25:12.502Z,99931.47
2023-11-01T09:28:15.038Z,99940.94
2023-11-01T09:31:18.411Z,99948.31
2023-11-01T09:34:21.177Z,99947.31
2023-11-01T09:37:24.138Z,99955.47
2023-11-01T09:40:27.395Z,99960.31
2023-11-01T09:43:32.054Z,99960.56
2023-11-01T09:46:35.748Z,99958.66
2023-11-01T09:49:39.033Z,99962.25
2023-11-01T09:52:41.626Z,99972.88
2023-11-01T09:55:45.384Z,99974.12
2023-11-01T09:58:48.126Z,99970.56
2023-11-01T10:01:50.981Z,99967.19
2023-11-01T10:04:54.101Z,99973.13
2023-11-01T10:07:57.621Z,99974.25
2023-11-01T10:11:01.938Z,99966.69
2023-11-01T10:14:04.494Z,99972.94
2023-11-01T10:17:07.756Z,99971.41
2023-11-01T10:20:29.217Z,99975.69
2023-11-01T10:23:33.907Z,99974.16
2023-11-01T10:26:36.628Z,99963.50
2023-11-01T10:29:45.934Z,99969.06
2023-11-01T10:32:59.784Z,99961.47
2023-11-01T10:36:04.735Z,99956.75
2023-11-01T10:39:08.931Z,99947.19
2023-11-01T10:42:12.644Z,99943.34
2023-11-01T10:45:15.217Z,99934.59
2023-11-01T10:48:19.429Z,99929.97
2023-11-01T10:51:22.521Z,99933.72
2023-11-01T10:54:27.255Z,99921.09
2023-11-01T10:57:30.035Z,99912.25
2023-11-01T11:00:42.617Z,99920.13
2023-11-01T11:03:55.100Z,99912.47
2023-11-01T11:07:23.961Z,99906.25
2023-11-01T11:10:33.792Z,99908.78
2023-11-01T11:13:37.022Z,99899.47
2023-11-01T11:17:09.291Z,99900.75
2023-11-01T11:20:13.141Z,99896.22
2023-11-01T11:23:18.222Z,99885.13
2023-11-01T11:26:39.077Z,99880.88
2023-11-01T11:29:47.843Z,99877.69
2023-11-01T11:33:07.056Z,99867.50
2023-11-01T11:36:12.774Z,99865.91
2023-11-01T11:39:15.650Z,99867.09
2023-11-01T11:42:43.122Z,99871.28
2023-11-01T11:45:46.942Z,99856.37
2023-11-01T11:48:52.556Z,99857.56
2023-11-01T11:51:59.519Z,99848.31
2023-11-01T11:55:05.237Z,99850.41
2023-11-01T11:58:08.366Z,99847.72
2023-11-01T12:01:23.831Z,99841.75
2023-11-01T12:04:32.806Z,99842.22
2023-11-01T12:07:43.030Z,99841.00
2023-11-01T12:10:52.007Z,99834.56
2023-11-01T12:13:54.611Z,99833.56
2023-11-01T12:17:03.215Z,99828.19
2023-11-01T12:20:06.296Z,99825.31
2023-11-01T12:23:09.299Z,99816.28
2023-11-01T12:26:11.828Z,99803.59
2023-11-01T12:29:14.778Z,99808.06
2023-11-01T12:32:18.268Z,99802.22
2023-11-01T12:35:21.195Z,99800.06
2023-11-01T12:38:23.756Z,99799.53
2023-11-01T12:41:26.633Z,99795.84
2023-11-01T12:44:29.154Z,99788.03
2023-11-01T12:47:51.443Z,99784.84
2023-11-01T12:50:54.256Z,99792.91
2023-11-01T12:54:00.126Z,99784.72
2023-11-01T12:57:04.546Z,99779.56
2023-11-01T13:00:13.702Z,99772.56
2023-11-01T13:03:16.535Z,99779.72
2023-11-01T13:06:19.599Z,99773.75
2023-11-01T13:09:23.197Z,99764.19
2023-11-01T13:12:26.648Z,99767.53
2023-11-01T13:15:29.247Z,99759.38
2023-11-01T13:18:32.177Z,99766.38
2023-11-01T13:21:34.744Z,99768.56
2023-11-01T13:24:37.510Z,99763.91
2023-11-01T13:27:40.817Z,99759.53
2023-11-01T13:30:43.767Z,99763.03
2023-11-01T13:33:49.084Z,99758.88
2023-11-01T13:36:53.121Z,99759.06
2023-11-01T13:39:56.761Z,99760.00
2023-11-01T13:43:00.149Z,99753.00
2023-11-01T13:46:04.176Z,99762.31
2023-11-01T13:49:06.966Z,99754.31
2023-11-01T13:52:09.819Z,99740.75
2023-11-01T13:55:12.794Z,99750.31
2023-11-01T13:58:19.224Z,99739.50
2023-11-01T14:01:22.078Z,99734.81
2023-11-01T14:04:25.291Z,99735.66
2023-11-01T14:07:30.472Z,99736.09
2023-11-01T14:10:33.729Z,99738.78
2023-11-01T14:13:36.318Z,99738.41
2023-11-01T14:16:39.174Z,99737.41
2023-11-01T14:19:41.942Z,99740.38
2023-11-01T14:22:44.753Z,99742.97
2023-11-01T14:25:47.284Z,99745.25
2023-11-01T14:28:50.094Z,99734.78
2023-11-01T14:31:55.331Z,99745.22
2023-11-01T14:34:58.195Z,99734.69
2023-11-01T14:38:00.721Z,99734.59
2023-11-01T14:41:03.737Z,99732.84
2023-11-01T14:44:06.719Z,99727.56
2023-11-01T14:47:09.466Z,99725.44
2023-11-01T14:50:12.100Z,99720.59
2023-11-01T14:53:15.443Z,99717.81
2023-11-01T14:56:18.507Z,99714.13
2023-11-01T14:59:21.563Z,99705.31
2023-11-01T15:02:24.391Z,99708.81
2023-11-01T15:05:27.209Z,99709.75
2023-11-01T15:08:29.748Z,99712.44
2023-11-01T15:11:32.899Z,99706.41
2023-11-01T15:14:35.609Z,99700.44
2023-11-01T15:17:38.958Z,99702.25
2023-11-01T15:20:42.075Z,99702.00
2023-11-01T15:23:44.886Z,99703.31
2023-11-01T15:26:47.634Z,99702.13
2023-11-01T15:29:50.826Z,99693.63
2023-11-01T15:32:53.469Z,99693.94
2023-11-01T15:35:56.585Z,99695.22
2023-11-01T15:38:59.381Z,99682.63
2023-11-01T15:42:02.294Z,99683.81
2023-11-01T15:45:05.978Z,99680.94
2023-11-01T15:48:09.048Z,99683.69
2023-11-01T15:51:13.569Z,99678.91
2023-11-01T15:54:16.481Z,99680.50
2023-11-01T15:57:21.224Z,99675.66
2023-11-01T16:00:25.532Z,99688.56
2023-11-01T16:03:28.399Z,99680.00
2023-11-01T16:06:31.147Z,99685.88
2023-11-01T16:09:35.304Z,99683.09
2023-11-01T16:12:38.000Z,99682.25
2023-11-01T16:15:40.908Z,99687.38
2023-11-01T16:18:43.686Z,99687.66
2023-11-01T16:21:46.845Z,99680.19
2023-11-01T16:24:50.689Z,99682.75
2023-11-01T16:27:53.486Z,99686.56
2023-11-01T16:30:58.235Z,99687.16
2023-11-01T16:34:01.411Z,99679.53
2023-11-01T16:37:04.188Z,99682.88
2023-11-01T16:40:08.085Z,99671.22
2023-11-01T16:43:11.311Z,99678.66
2023-11-01T16:46:17.247Z,99680.19
2023-11-01T16:49:20.122Z,99682.47
2023-11-01T16:52:25.409Z,99674.41
2023-11-01T16:55:28.494Z,99674.69
2023-11-01T16:58:32.011Z,99668.00
2023-11-01T17:01:37.328Z,99673.44
2023-11-01T17:04:42.205Z,99671.50
2023-11-01T17:07:45.008Z,99663.56
2023-11-01T17:10:48.194Z,99665.09
2023-11-01T17:13:51.111Z,99658.81
2023-11-01T17:16:55.103Z,99656.31
2023-11-01T17:19:58.654Z,99661.75
2023-11-01T17:23:08.723Z,99657.03
2023-11-01T17:26:28.272Z,99653.00
2023-11-01T17:29:33.130Z,99651.03
2023-11-01T17:32:36.065Z,99650.75
2023-11-01T17:35:42.157Z,99651.34
2023-11-01T17:38:46.926Z,99655.66
2023-11-01T17:41:56.869Z,99648.13
2023-11-01T17:44:59.557Z,99649.22
2023-11-01T17:48:05.704Z,99645.50
2023-11-01T17:51:10.986Z,99649.25
2023-11-01T17:54:18.432Z,99636.03
2023-11-01T17:57:23.025Z,99642.16
2023-11-01T18:00:27.996Z,99638.22
2023-11-01T18:03:36.318Z,99643.22
2023-11-01T18:06:38.960Z,99640.19
2023-11-01T18:09:41.784Z,99643.06
2023-11-01T18:12:46.954Z,99633.31
2023-11-01T18:15:51.568Z,99628.72
2023-11-01T18:19:04.460Z,99619.75
2023-11-01T18:22:07.871Z,99629.16
2023-11-01T18:25:28.631Z,99625.13
2023-11-01T18:28:42.349Z,99621.34
2023-11-01T18:31:45.194Z,99619.13
2023-11-01T18:34:49.089Z,99619.94
2023-11-01T18:37:52.892Z,99619.22
2023-11-01T18:40:55.826Z,99619.03
2023-11-01T18:43:58.981Z,99615.81
2023-11-01T18:47:04.101Z,99610.88
2023-11-01T18:50:14.055Z,99617.56
2023-11-01T18:53:33.459Z,99623.41
2023-11-01T18:56:41.967Z,99625.94
2023-11-01T18:59:45.127Z,99622.63
2023-11-01T19:03:04.737Z,99616.41
2023-11-01T19:06:10.177Z,99615.09
2023-11-01T19:09:21.166Z,99608.50
2023-11-01T19:12:33.545Z,99608.69
2023-11-01T19:15:41.916Z,99609.81
2023-11-01T19:18:53.287Z,99608.41
2023-11-01T19:21:58.874Z,99610.22
2023-11-01T19:25:13.208Z,99613.13
2023-11-01T19:28:17.337Z,99605.06
2023-11-01T19:31:23.565Z,99607.00
2023-11-01T19:34:29.348Z,99607.53
2023-11-01T19:37:34.457Z,99613.34
2023-11-01T19:40:37.051Z,99606.38
2023-11-01T19:43:39.961Z,99601.09
2023-11-01T19:46:43.048Z,99604.44
2023-11-01T19:49:49.030Z,99600.00
2023-11-01T19:52:52.600Z,99597.50
2023-11-01T19:55:56.548Z,99604.91
2023-11-01T19:59:03.044Z,99599.22
2023-11-01T20:02:09.469Z,99602.25
2023-11-01T20:05:15.240Z,99605.44
2023-11-01T20:08:17.838Z,99596.16
2023-11-01T20:11:22.420Z,99595.31
2023-11-01T20:14:32.184Z,99601.50
2023-11-01T20:17:38.135Z,99594.06
2023-11-01T20:20:40.813Z,99587.22
2023-11-01T20:23:43.592Z,99584.31
2023-11-01T20:26:48.301Z,99590.81
2023-11-01T20:29:54.601Z,99575.59
2023-11-01T20:32:57.296Z,99578.28
2023-11-01T20:36:02.692Z,99573.47
2023-11-01T20:39:05.400Z,99570.44
2023-11-01T20:42:08.308Z,99568.44
2023-11-01T20:45:11.305Z,99569.44
2023-11-01T20:48:14.250Z,99566.66
2023-11-01T20:51:21.597Z,99564.25
2023-11-01T20:54:25.066Z,99557.03
2023-11-01T20:57:29.532Z,99556.75
2023-11-01T21:00:34.779Z,99546.28
2023-11-01T21:03:37.438Z,99552.44
2023-11-01T21:06:42.878Z,99542.75
2023-11-01T21:09:50.893Z,99549.94
2023-11-01T21:12:53.907Z,99548.00
2023-11-01T21:16:00.705Z,99543.97
2023-11-01T21:19:04.508Z,99542.13
2023-11-01T21:22:07.483Z,99536.81
2023-11-01T21:25:12.239Z,99527.50
2023-11-01T21:28:15.509Z,99535.91
2023-11-01T21:31:18.492Z,99537.34
2023-11-01T21:34:21.150Z,99527.31
2023-11-01T21:37:24.092Z,99529.72
2023-11-01T21:40:27.146Z,99526.50
2023-11-01T21:43:30.172Z,99522.78
2023-11-01T21:46:32.825Z,99525.22
2023-11-01T21:49:36.649Z,99525.50
2023-11-01T21:52:39.184Z,99517.19
2023-11-01T21:55:42.728Z,99514.97
2023-11-01T21:58:46.331Z,99516.53
2023-11-01T22:01:49.375Z,99509.03
2023-11-01T22:04:52.303Z,99510.25
2023-11-01T22:07:55.459Z,99504.87
2023-11-01T22:10:58.967Z,99508.22
2023-11-01T22:14:11.525Z,99500.06
2023-11-01T22:17:35.972Z,99507.47
2023-11-01T22:20:38.401Z,99494.31
2023-11-01T22:23:41.176Z,99498.31
2023-11-01T22:26:45.493Z,99497.44
2023-11-01T22:29:50.505Z,99491.19
2023-11-01T22:32:57.483Z,99484.88
2023-11-01T22:36:00.327Z,99494.59
2023-11-01T22:39:02.923Z,99479.53
2023-11-01T22:42:06.073Z,99478.84
2023-11-01T22:45:08.803Z,99478.03
2023-11-01T22:48:13.358Z,99476.75
2023-11-01T22:51:17.655Z,99466.84
2023-11-01T22:54:20.495Z,99469.97
2023-11-01T22:57:23.069Z,99461.38
2023-11-01T23:00:35.506Z,99454.28
2023-11-01T23:03:38.774Z,99442.44
2023-11-01T23:06:41.942Z,99438.97
2023-11-01T23:09:44.611Z,99444.66
2023-11-01T23:12:48.092Z,99444.47
2023-11-01T23:15:50.733Z,99442.66
2023-11-01T23:18:53.640Z,99442.16
2023-11-01T23:21:58.290Z,99440.84
2023-11-01T23:25:01.446Z,99435.09
2023-11-01T23:28:18.786Z,99428.69
2023-11-01T23:31:21.581Z,99426.50
2023-11-01T23:34:44.764Z,99424.22
2023-11-01T23:37:47.601Z,99426.25
2023-11-01T23:40:50.186Z,99419.78
2023-11-01T23:43:54.697Z,99425.22
2023-11-01T23:46:57.568Z,99420.59
2023-11-01T23:50:00.935Z,99412.34
2023-11-01T23:53:05.365Z,99407.06
2023-11-01T23:56:22.188Z,99412.72
2023-11-01T23:59:24.815Z,99415.94
